sensor_id;sensor_type;location;lat;lon;timestamp;pressure;altitude;pressure_sealevel;temperature;humidity
32243;BME280;18731;42.830;24.390;2022-09-21T03:01:33;94641.50;;;7.11;80.20
32243;BME280;18731;42.830;24.390;2022-09-21T03:03:59;94649.94;;;7.13;80.18
32243;BME280;18731;42.830;24.390;2022-09-21T03:06:25;94640.59;;;7.16;79.86
32243;BME280;18731;42.830;24.390;2022-09-21T03:08:51;94642.53;;;7.24;79.79
32243;BME280;18731;42.830;24.390;2022-09-21T03:11:18;94640.97;;;7.23;80.31
32243;BME280;18731;42.830;24.390;2022-09-21T03:13:43;94643.53;;;7.36;80.08
32243;BME280;18731;42.830;24.390;2022-09-21T03:16:10;94655.31;;;7.44;79.99
32243;BME280;18731;42.830;24.390;2022-09-21T03:18:36;94636.25;;;7.42;79.56
32243;BME280;18731;42.830;24.390;2022-09-21T03:21:03;94662.13;;;7.59;79.39
32243;BME280;18731;42.830;24.390;2022-09-21T03:23:29;94639.91;;;7.55;79.38
32243;BME280;18731;42.830;24.390;2022-09-21T03:25:54;94650.13;;;7.70;78.86
32243;BME280;18731;42.830;24.390;2022-09-21T03:28:22;94653.94;;;7.78;78.91
32243;BME280;18731;42.830;24.390;2022-09-21T03:30:49;94654.53;;;7.74;78.29
32243;BME280;18731;42.830;24.390;2022-09-21T03:33:16;94644.34;;;7.68;77.97
32243;BME280;18731;42.830;24.390;2022-09-21T03:35:41;94658.47;;;7.77;78.26
32243;BME280;18731;42.830;24.390;2022-09-21T03:38:08;94648.81;;;7.81;78.43
32243;BME280;18731;42.830;24.390;2022-09-21T03:40:34;94651.75;;;7.80;78.41
32243;BME280;18731;42.830;24.390;2022-09-21T03:43:00;94656.81;;;7.90;78.12
32243;BME280;18731;42.830;24.390;2022-09-21T03:45:25;94663.88;;;7.94;78.18
32243;BME280;18731;42.830;24.390;2022-09-21T03:47:58;94669.72;;;8.05;78.45
32243;BME280;18731;42.830;24.390;2022-09-21T03:50:26;94639.31;;;7.89;78.43
32243;BME280;18731;42.830;24.390;2022-09-21T03:52:53;94662.81;;;8.04;77.93
32243;BME280;18731;42.830;24.390;2022-09-21T03:55:19;94662.81;;;8.04;77.73
32243;BME280;18731;42.830;24.390;2022-09-21T03:57:45;94666.75;;;8.06;77.68
32243;BME280;18731;42.830;24.390;2022-09-21T04:00:12;94658.59;;;8.03;78.08
32243;BME280;18731;42.830;24.390;2022-09-21T04:02:38;94666.75;;;8.06;78.04
32243;BME280;18731;42.830;24.390;2022-09-21T04:05:06;94664.84;;;7.98;78.61
32243;BME280;18731;42.830;24.390;2022-09-21T04:07:33;94659.13;;;7.83;78.46
32243;BME280;18731;42.830;24.390;2022-09-21T04:09:59;94659.84;;;7.74;79.18
32243;BME280;18731;42.830;24.390;2022-09-21T04:12:26;94667.28;;;7.86;79.41
32243;BME280;18731;42.830;24.390;2022-09-21T04:14:52;94663.38;;;7.84;80.20
32243;BME280;18731;42.830;24.390;2022-09-21T04:17:18;94672.16;;;7.93;79.67
32243;BME280;18731;42.830;24.390;2022-09-21T04:19:44;94674.84;;;8.01;78.83
32243;BME280;18731;42.830;24.390;2022-09-21T04:22:10;94615.56;;;7.61;78.85
32243;BME280;18731;42.830;24.390;2022-09-21T04:24:37;94662.47;;;7.97;79.06
32243;BME280;18731;42.830;24.390;2022-09-21T04:27:06;94671.75;;;8.08;80.06
32243;BME280;18731;42.830;24.390;2022-09-21T04:29:32;94677.09;;;8.17;80.28
32243;BME280;18731;42.830;24.390;2022-09-21T04:31:58;94661.94;;;8.17;80.31
32243;BME280;18731;42.830;24.390;2022-09-21T04:34:24;94672.75;;;8.29;80.03
32243;BME280;18731;42.830;24.390;2022-09-21T04:36:49;94670.88;;;8.30;79.60
32243;BME280;18731;42.830;24.390;2022-09-21T04:39:15;94675.16;;;8.40;79.22
32243;BME280;18731;42.830;24.390;2022-09-21T04:41:40;94685.19;;;8.43;79.07
32243;BME280;18731;42.830;24.390;2022-09-21T04:44:06;94685.53;;;8.50;79.03
32243;BME280;18731;42.830;24.390;2022-09-21T04:46:32;94652.09;;;8.26;79.54
32243;BME280;18731;42.830;24.390;2022-09-21T04:48:58;94675.34;;;8.43;78.99
32243;BME280;18731;42.830;24.390;2022-09-21T04:51:24;94686.47;;;8.54;78.84
32243;BME280;18731;42.830;24.390;2022-09-21T04:53:49;94689.16;;;8.62;78.89
32243;BME280;18731;42.830;24.390;2022-09-21T04:56:16;94687.75;;;8.65;78.55
32243;BME280;18731;42.830;24.390;2022-09-21T04:58:42;94669.44;;;8.63;79.01
32243;BME280;18731;42.830;24.390;2022-09-21T05:01:08;94683.69;;;8.76;79.08
32243;BME280;18731;42.830;24.390;2022-09-21T05:03:34;94693.09;;;8.82;79.07
32243;BME280;18731;42.830;24.390;2022-09-21T05:06:00;94502.91;;;7.62;77.95
32243;BME280;18731;42.830;24.390;2022-09-21T05:08:27;94681.81;;;8.85;77.45
32243;BME280;18731;42.830;24.390;2022-09-21T05:11:16;94682.16;;;8.92;77.31
32243;BME280;18731;42.830;24.390;2022-09-21T05:13:46;94673.53;;;8.87;77.14
32243;BME280;18731;42.830;24.390;2022-09-21T05:16:12;94665.56;;;8.87;77.31
32243;BME280;18731;42.830;24.390;2022-09-21T05:18:38;94676.53;;;9.02;77.12
32243;BME280;18731;42.830;24.390;2022-09-21T05:21:04;94667.59;;;8.98;76.84
32243;BME280;18731;42.830;24.390;2022-09-21T05:23:30;94683.25;;;9.09;77.08
32243;BME280;18731;42.830;24.390;2022-09-21T05:25:57;94651.78;;;8.93;77.81
32243;BME280;18731;42.830;24.390;2022-09-21T05:28:23;94668.69;;;9.15;77.48
32243;BME280;18731;42.830;24.390;2022-09-21T05:33:28;94678.25;;;9.16;76.73
32243;BME280;18731;42.830;24.390;2022-09-21T05:38:57;94671.50;;;9.27;76.23
32243;BME280;18731;42.830;24.390;2022-09-21T05:41:23;94660.84;;;9.27;76.34
32243;BME280;18731;42.830;24.390;2022-09-21T05:43:49;94674.94;;;9.36;76.00
32243;BME280;18731;42.830;24.390;2022-09-21T05:48:58;94669.59;;;9.53;75.57
32243;BME280;18731;42.830;24.390;2022-09-21T05:51:33;94675.84;;;9.57;75.09
32243;BME280;18731;42.830;24.390;2022-09-21T05:59:41;94659.88;;;9.57;74.89
32243;BME280;18731;42.830;24.390;2022-09-21T06:04:43;94663.00;;;9.59;74.95
32243;BME280;18731;42.830;24.390;2022-09-21T06:07:09;94668.91;;;9.74;74.90
32243;BME280;18731;42.830;24.390;2022-09-21T06:09:35;94647.94;;;9.63;74.71
32243;BME280;18731;42.830;24.390;2022-09-21T06:12:01;94674.66;;;9.93;75.38
32243;BME280;18731;42.830;24.390;2022-09-21T06:14:26;94670.72;;;9.99;75.09
32243;BME280;18731;42.830;24.390;2022-09-21T06:16:53;94677.75;;;10.12;74.20
32243;BME280;18731;42.830;24.390;2022-09-21T06:19:18;94661.28;;;10.10;73.76
32243;BME280;18731;42.830;24.390;2022-09-21T06:21:44;94669.25;;;10.19;73.17
32243;BME280;18731;42.830;24.390;2022-09-21T06:24:09;94683.03;;;10.29;73.22
32243;BME280;18731;42.830;24.390;2022-09-21T06:26:36;94668.13;;;10.28;73.52
32243;BME280;18731;42.830;24.390;2022-09-21T06:29:01;94680.78;;;10.49;73.72
32243;BME280;18731;42.830;24.390;2022-09-21T06:31:27;94677.72;;;10.59;74.03
32243;BME280;18731;42.830;24.390;2022-09-21T06:33:53;94688.03;;;10.69;73.28
32243;BME280;18731;42.830;24.390;2022-09-21T06:36:18;94685.19;;;10.74;73.22
32243;BME280;18731;42.830;24.390;2022-09-21T06:38:44;94685.19;;;10.74;72.04
32243;BME280;18731;42.830;24.390;2022-09-21T06:41:09;94695.88;;;10.74;71.05
32243;BME280;18731;42.830;24.390;2022-09-21T06:43:35;94681.13;;;10.68;70.68
32243;BME280;18731;42.830;24.390;2022-09-21T06:46:02;94679.56;;;10.67;71.02
32243;BME280;18731;42.830;24.390;2022-09-21T06:48:28;94693.91;;;10.83;70.81
32243;BME280;18731;42.830;24.390;2022-09-21T06:50:59;94692.63;;;10.89;70.86
32243;BME280;18731;42.830;24.390;2022-09-21T06:53:26;94683.00;;;10.97;70.03
32243;BME280;18731;42.830;24.390;2022-09-21T06:55:52;94687.69;;;11.00;70.22
32243;BME280;18731;42.830;24.390;2022-09-21T06:58:17;94689.25;;;11.01;69.75
32243;BME280;18731;42.830;24.390;2022-09-21T07:00:43;94657.78;;;10.86;69.45
32243;BME280;18731;42.830;24.390;2022-09-21T07:03:12;94689.75;;;10.94;70.53
32243;BME280;18731;42.830;24.390;2022-09-21T07:05:38;94688.19;;;10.93;71.24
32243;BME280;18731;42.830;24.390;2022-09-21T07:08:05;94689.69;;;10.82;70.35
32243;BME280;18731;42.830;24.390;2022-09-21T07:10:31;94688.31;;;10.76;71.91
32243;BME280;18731;42.830;24.390;2022-09-21T07:13:05;94677.28;;;10.57;73.26
32243;BME280;18731;42.830;24.390;2022-09-21T07:15:33;94692.97;;;10.58;74.53
32243;BME280;18731;42.830;24.390;2022-09-21T07:17:59;94681.88;;;10.48;74.14
32243;BME280;18731;42.830;24.390;2022-09-21T07:20:25;94700.09;;;10.46;75.42
32243;BME280;18731;42.830;24.390;2022-09-21T07:22:51;94675.66;;;10.26;74.51
32243;BME280;18731;42.830;24.390;2022-09-21T07:25:16;94681.78;;;10.27;74.44
32243;BME280;18731;42.830;24.390;2022-09-21T07:27:42;94688.81;;;10.31;73.99
32243;BME280;18731;42.830;24.390;2022-09-21T07:30:08;94685.41;;;10.22;75.04
32243;BME280;18731;42.830;24.390;2022-09-21T07:32:35;94698.72;;;10.31;74.04
32243;BME280;18731;42.830;24.390;2022-09-21T07:35:00;94705.91;;;10.39;74.33
32243;BME280;18731;42.830;24.390;2022-09-21T07:37:27;94706.41;;;10.41;74.00
32243;BME280;18731;42.830;24.390;2022-09-21T07:39:53;94694.66;;;10.25;74.54
32243;BME280;18731;42.830;24.390;2022-09-21T07:42:20;94703.03;;;10.53;74.47
32243;BME280;18731;42.830;24.390;2022-09-21T07:44:47;94703.13;;;10.65;74.60
32243;BME280;18731;42.830;24.390;2022-09-21T07:47:13;94701.66;;;10.76;74.43
32243;BME280;18731;42.830;24.390;2022-09-21T07:49:39;94706.91;;;10.93;73.12
32243;BME280;18731;42.830;24.390;2022-09-21T07:52:05;94699.53;;;11.11;71.94
32243;BME280;18731;42.830;24.390;2022-09-21T07:54:34;94702.81;;;11.17;72.42
32243;BME280;18731;42.830;24.390;2022-09-21T07:56:59;94708.53;;;11.27;70.80
32243;BME280;18731;42.830;24.390;2022-09-21T07:59:44;94691.31;;;11.37;70.36
32243;BME280;18731;42.830;24.390;2022-09-21T08:02:10;94691.38;;;11.49;69.03
32243;BME280;18731;42.830;24.390;2022-09-21T08:04:36;94691.44;;;11.62;70.05
32243;BME280;18731;42.830;24.390;2022-09-21T08:07:02;94685.88;;;11.67;68.27
32243;BME280;18731;42.830;24.390;2022-09-21T08:09:29;94688.63;;;11.79;67.09
32243;BME280;18731;42.830;24.390;2022-09-21T08:11:55;94697.91;;;11.94;67.59
32243;BME280;18731;42.830;24.390;2022-09-21T08:14:21;94687.00;;;11.99;66.39
32243;BME280;18731;42.830;24.390;2022-09-21T08:16:47;94693.59;;;12.13;66.68
32243;BME280;18731;42.830;24.390;2022-09-21T08:19:13;94699.66;;;12.35;65.49
32243;BME280;18731;42.830;24.390;2022-09-21T08:21:42;94686.16;;;12.31;65.30
32243;BME280;18731;42.830;24.390;2022-09-21T08:24:08;94693.75;;;12.41;65.93
32243;BME280;18731;42.830;24.390;2022-09-21T08:26:34;94696.97;;;12.59;65.10
32243;BME280;18731;42.830;24.390;2022-09-21T08:29:00;94697.88;;;12.63;65.70
32243;BME280;18731;42.830;24.390;2022-09-21T08:31:28;94698.31;;;12.77;63.80
32243;BME280;18731;42.830;24.390;2022-09-21T08:33:55;94686.72;;;12.73;64.45
32243;BME280;18731;42.830;24.390;2022-09-21T08:36:21;94700.09;;;12.85;64.49
32243;BME280;18731;42.830;24.390;2022-09-21T08:38:47;94703.44;;;12.95;63.41
32243;BME280;18731;42.830;24.390;2022-09-21T08:46:43;94700.84;;;12.98;63.54
32243;BME280;18731;42.830;24.390;2022-09-21T08:49:18;94692.94;;;12.89;63.37
32243;BME280;18731;42.830;24.390;2022-09-21T08:52:11;94686.25;;;12.83;63.82
32243;BME280;18731;42.830;24.390;2022-09-21T08:57:12;94694.97;;;12.56;62.77
32243;BME280;18731;42.830;24.390;2022-09-21T08:59:45;94692.75;;;12.58;63.95
32243;BME280;18731;42.830;24.390;2022-09-21T09:04:44;94695.19;;;12.75;63.35
32243;BME280;18731;42.830;24.390;2022-09-21T09:10:32;94679.97;;;13.16;61.64
32243;BME280;18731;42.830;24.390;2022-09-21T09:12:57;94689.13;;;13.27;58.39
32243;BME280;18731;42.830;24.390;2022-09-21T09:18:31;94679.00;;;13.48;57.44
32243;BME280;18731;42.830;24.390;2022-09-21T09:21:05;94675.00;;;13.42;58.42
32243;BME280;18731;42.830;24.390;2022-09-21T09:23:40;94681.94;;;13.43;59.05
32243;BME280;18731;42.830;24.390;2022-09-21T09:26:19;94675.00;;;13.42;59.65
32243;BME280;18731;42.830;24.390;2022-09-21T09:28:57;94684.38;;;13.48;59.37
32243;BME280;18731;42.830;24.390;2022-09-21T09:31:28;94680.66;;;13.25;58.20
32243;BME280;18731;42.830;24.390;2022-09-21T09:36:46;94681.09;;;12.91;59.74
32243;BME280;18731;42.830;24.390;2022-09-21T09:39:14;94671.97;;;12.79;59.98
32243;BME280;18731;42.830;24.390;2022-09-21T09:42:12;94681.00;;;12.75;60.94
32243;BME280;18731;42.830;24.390;2022-09-21T09:50:16;94674.09;;;12.74;58.26
32243;BME280;18731;42.830;24.390;2022-09-21T09:52:45;94675.75;;;12.91;59.32
32243;BME280;18731;42.830;24.390;2022-09-21T09:55:18;94672.16;;;12.99;58.96
32243;BME280;18731;42.830;24.390;2022-09-21T09:57:47;94664.03;;;13.07;59.72
32243;BME280;18731;42.830;24.390;2022-09-21T10:00:17;94650.38;;;13.12;56.95
32243;BME280;18731;42.830;24.390;2022-09-21T10:02:47;94661.53;;;13.27;57.34
32243;BME280;18731;42.830;24.390;2022-09-21T10:05:24;94664.03;;;13.47;57.78
32243;BME280;18731;42.830;24.390;2022-09-21T10:07:55;94599.31;;;13.33;56.68
32243;BME280;18731;42.830;24.390;2022-09-21T10:10:34;94652.81;;;14.01;56.61
32243;BME280;18731;42.830;24.390;2022-09-21T10:15:58;94643.91;;;14.44;52.83
32243;BME280;18731;42.830;24.390;2022-09-21T10:18:39;94634.59;;;14.73;51.67
32243;BME280;18731;42.830;24.390;2022-09-21T10:23:33;94619.56;;;15.62;52.69
32243;BME280;18731;42.830;24.390;2022-09-21T10:26:09;94635.13;;;15.72;50.72
32243;BME280;18731;42.830;24.390;2022-09-21T10:28:35;94630.06;;;15.90;48.01
32243;BME280;18731;42.830;24.390;2022-09-21T10:31:08;94626.84;;;16.26;47.54
32243;BME280;18731;42.830;24.390;2022-09-21T10:33:44;94623.03;;;16.77;49.04
32243;BME280;18731;42.830;24.390;2022-09-21T10:36:33;94602.28;;;17.41;46.55
32243;BME280;18731;42.830;24.390;2022-09-21T10:39:11;94618.41;;;17.67;43.97
32243;BME280;18731;42.830;24.390;2022-09-21T10:41:37;94606.31;;;17.57;43.81
32243;BME280;18731;42.830;24.390;2022-09-21T10:44:03;94603.00;;;18.08;44.28
32243;BME280;18731;42.830;24.390;2022-09-21T10:46:33;94607.78;;;18.22;42.59
32243;BME280;18731;42.830;24.390;2022-09-21T10:49:01;94603.19;;;17.85;41.18
32243;BME280;18731;42.830;24.390;2022-09-21T10:51:28;94592.75;;;17.17;41.83
32243;BME280;18731;42.830;24.390;2022-09-21T10:53:55;94548.03;;;17.86;46.29
32243;BME280;18731;42.830;24.390;2022-09-21T10:56:22;94574.09;;;18.60;42.39
32243;BME280;18731;42.830;24.390;2022-09-21T11:01:36;94578.16;;;19.81;40.03
32243;BME280;18731;42.830;24.390;2022-09-21T11:04:27;94573.50;;;19.78;36.34
32243;BME280;18731;42.830;24.390;2022-09-21T11:07:12;94569.25;;;19.77;36.74
32243;BME280;18731;42.830;24.390;2022-09-21T11:20:35;94563.38;;;21.28;36.36
32243;BME280;18731;42.830;24.390;2022-09-21T11:36:37;94555.00;;;18.93;39.26
32243;BME280;18731;42.830;24.390;2022-09-21T11:44:52;94557.28;;;16.05;45.24
32243;BME280;18731;42.830;24.390;2022-09-21T11:50:26;94569.13;;;14.62;49.73
32243;BME280;18731;42.830;24.390;2022-09-21T11:56:26;94576.28;;;13.76;53.92
32243;BME280;18731;42.830;24.390;2022-09-21T12:02:13;94589.00;;;12.43;56.24
32243;BME280;18731;42.830;24.390;2022-09-21T12:07:32;94632.13;;;11.47;59.98
32243;BME280;18731;42.830;24.390;2022-09-21T12:10:40;94642.72;;;11.02;64.03
32243;BME280;18731;42.830;24.390;2022-09-21T12:13:36;94650.66;;;10.69;66.73
32243;BME280;18731;42.830;24.390;2022-09-21T12:16:05;94665.91;;;10.69;69.29
32243;BME280;18731;42.830;24.390;2022-09-21T12:19:00;94670.84;;;10.58;71.79
32243;BME280;18731;42.830;24.390;2022-09-21T12:21:30;94668.91;;;10.67;71.12
32243;BME280;18731;42.830;24.390;2022-09-21T12:24:04;94666.41;;;10.62;72.42
32243;BME280;18731;42.830;24.390;2022-09-21T12:26:40;94668.13;;;10.87;73.66
32243;BME280;18731;42.830;24.390;2022-09-21T12:29:16;94671.47;;;11.26;75.67
32243;BME280;18731;42.830;24.390;2022-09-21T12:34:41;94667.16;;;11.67;69.32
32243;BME280;18731;42.830;24.390;2022-09-21T12:37:15;94663.03;;;12.02;68.38
32243;BME280;18731;42.830;24.390;2022-09-21T12:39:50;94659.94;;;12.37;69.07
32243;BME280;18731;42.830;24.390;2022-09-21T12:45:06;94659.94;;;12.73;65.43
32243;BME280;18731;42.830;24.390;2022-09-21T12:50:37;94656.75;;;12.96;60.68
32243;BME280;18731;42.830;24.390;2022-09-21T12:53:05;94650.72;;;12.99;62.75
32243;BME280;18731;42.830;24.390;2022-09-21T13:09:19;94597.13;;;16.19;53.37
32243;BME280;18731;42.830;24.390;2022-09-21T13:11:53;94636.81;;;16.71;52.06
32243;BME280;18731;42.830;24.390;2022-09-21T13:14:24;94632.16;;;16.68;49.96
32243;BME280;18731;42.830;24.390;2022-09-21T13:16:59;94619.47;;;16.46;51.56
32243;BME280;18731;42.830;24.390;2022-09-21T13:19:29;94623.38;;;16.26;52.41
32243;BME280;18731;42.830;24.390;2022-09-21T13:24:56;94624.63;;;15.86;56.13
32243;BME280;18731;42.830;24.390;2022-09-21T13:33:30;94617.78;;;15.69;59.83
32243;BME280;18731;42.830;24.390;2022-09-21T13:51:55;94594.78;;;16.67;54.94
32243;BME280;18731;42.830;24.390;2022-09-21T13:57:39;94584.91;;;16.25;54.58
32243;BME280;18731;42.830;24.390;2022-09-21T14:00:30;94578.28;;;16.46;54.31
32243;BME280;18731;42.830;24.390;2022-09-21T14:03:03;94590.16;;;16.94;54.27
32243;BME280;18731;42.830;24.390;2022-09-21T14:06:09;94577.59;;;17.72;53.08
32243;BME280;18731;42.830;24.390;2022-09-21T14:08:39;94583.84;;;18.20;50.59
32243;BME280;18731;42.830;24.390;2022-09-21T14:11:21;94562.88;;;18.54;49.12
32243;BME280;18731;42.830;24.390;2022-09-21T14:24:46;94570.84;;;18.91;49.17
32243;BME280;18731;42.830;24.390;2022-09-21T14:30:03;94566.66;;;19.05;47.71
32243;BME280;18731;42.830;24.390;2022-09-21T14:32:36;94566.13;;;19.61;48.45
32243;BME280;18731;42.830;24.390;2022-09-21T14:35:22;94563.06;;;19.87;46.03
32243;BME280;18731;42.830;24.390;2022-09-21T14:38:02;94570.75;;;19.64;45.15
32243;BME280;18731;42.830;24.390;2022-09-21T14:40:33;94562.81;;;19.13;46.53
32243;BME280;18731;42.830;24.390;2022-09-21T14:43:20;94569.75;;;19.07;46.15
32243;BME280;18731;42.830;24.390;2022-09-21T14:59:19;94570.25;;;13.35;62.01
32243;BME280;18731;42.830;24.390;2022-09-21T15:02:18;94571.00;;;13.20;62.86
32243;BME280;18731;42.830;24.390;2022-09-21T15:19:11;94573.59;;;11.67;70.50
32243;BME280;18731;42.830;24.390;2022-09-21T15:21:45;94571.31;;;11.44;71.70
32243;BME280;18731;42.830;24.390;2022-09-21T15:24:32;94575.53;;;11.45;71.25
32243;BME280;18731;42.830;24.390;2022-09-21T15:27:06;94577.06;;;11.34;71.05
32243;BME280;18731;42.830;24.390;2022-09-21T15:29:35;94582.75;;;11.33;71.77
32243;BME280;18731;42.830;24.390;2022-09-21T15:32:01;94569.44;;;11.12;72.86
32243;BME280;18731;42.830;24.390;2022-09-21T15:34:27;94585.91;;;11.14;74.31
32243;BME280;18731;42.830;24.390;2022-09-21T15:36:53;94590.59;;;11.17;74.13
32243;BME280;18731;42.830;24.390;2022-09-21T15:39:31;94599.44;;;11.30;73.63
32243;BME280;18731;42.830;24.390;2022-09-21T15:44:35;94614.28;;;11.39;74.13
32243;BME280;18731;42.830;24.390;2022-09-21T15:47:03;94618.72;;;11.35;74.90
32243;BME280;18731;42.830;24.390;2022-09-21T15:49:33;94616.66;;;11.20;75.33
32243;BME280;18731;42.830;24.390;2022-09-21T15:52:09;94604.41;;;11.19;75.57
32243;BME280;18731;42.830;24.390;2022-09-21T15:57:23;94635.16;;;11.25;76.66
32243;BME280;18731;42.830;24.390;2022-09-21T15:59:50;94628.38;;;11.27;76.46
32243;BME280;18731;42.830;24.390;2022-09-21T16:02:21;94589.06;;;10.95;76.40
32243;BME280;18731;42.830;24.390;2022-09-21T16:04:48;94642.72;;;11.23;76.70
32243;BME280;18731;42.830;24.390;2022-09-21T16:09:55;94630.22;;;11.15;76.76
32243;BME280;18731;42.830;24.390;2022-09-21T16:15:23;94648.97;;;11.27;76.03
32243;BME280;18731;42.830;24.390;2022-09-21T16:17:57;94646.69;;;11.38;75.09
32243;BME280;18731;42.830;24.390;2022-09-21T16:20:24;94661.28;;;11.40;74.03
32243;BME280;18731;42.830;24.390;2022-09-21T16:23:13;94654.44;;;11.31;72.46
32243;BME280;18731;42.830;24.390;2022-09-21T16:25:40;94671.06;;;11.36;72.73
32243;BME280;18731;42.830;24.390;2022-09-21T16:33:42;94681.41;;;10.75;75.25
32243;BME280;18731;42.830;24.390;2022-09-21T16:39:01;94663.50;;;10.76;76.06
32243;BME280;18731;42.830;24.390;2022-09-21T16:41:37;94676.06;;;10.75;76.68
32243;BME280;18731;42.830;24.390;2022-09-21T16:44:14;94675.06;;;10.59;77.19
32243;BME280;18731;42.830;24.390;2022-09-21T16:46:57;94667.84;;;10.59;77.45
32243;BME280;18731;42.830;24.390;2022-09-21T16:49:25;94691.38;;;10.87;76.84
32243;BME280;18731;42.830;24.390;2022-09-21T16:51:53;94667.88;;;10.80;76.21
32243;BME280;18731;42.830;24.390;2022-09-21T16:54:19;94676.16;;;10.87;76.04
32243;BME280;18731;42.830;24.390;2022-09-21T16:56:52;94660.25;;;10.70;76.20
32243;BME280;18731;42.830;24.390;2022-09-21T16:59:19;94697.03;;;10.85;75.83
32243;BME280;18731;42.830;24.390;2022-09-21T17:01:47;94685.81;;;10.71;75.94
32243;BME280;18731;42.830;24.390;2022-09-21T17:04:22;94708.09;;;10.75;76.02
32243;BME280;18731;42.830;24.390;2022-09-21T17:06:49;94703.03;;;10.53;76.76
32243;BME280;18731;42.830;24.390;2022-09-21T17:09:16;94704.97;;;10.35;77.35
32243;BME280;18731;42.830;24.390;2022-09-21T17:11:43;94702.03;;;10.19;78.02
32243;BME280;18731;42.830;24.390;2022-09-21T17:14:11;94708.31;;;10.23;77.68
32243;BME280;18731;42.830;24.390;2022-09-21T17:16:52;94706.53;;;10.36;77.45
32243;BME280;18731;42.830;24.390;2022-09-21T17:19:19;94712.03;;;10.40;77.43
32243;BME280;18731;42.830;24.390;2022-09-21T17:21:46;94709.84;;;10.33;77.70
32243;BME280;18731;42.830;24.390;2022-09-21T17:24:12;94711.78;;;10.24;77.92
32243;BME280;18731;42.830;24.390;2022-09-21T17:26:39;94702.66;;;10.16;77.92
32243;BME280;18731;42.830;24.390;2022-09-21T17:29:23;94719.78;;;10.24;77.96
32243;BME280;18731;42.830;24.390;2022-09-21T17:31:58;94727.28;;;10.30;78.03
32243;BME280;18731;42.830;24.390;2022-09-21T17:34:26;94711.91;;;10.19;78.40
32243;BME280;18731;42.830;24.390;2022-09-21T17:36:53;94724.63;;;10.30;78.09
32243;BME280;18731;42.830;24.390;2022-09-21T17:39:20;94735.28;;;10.30;77.63
32243;BME280;18731;42.830;24.390;2022-09-21T17:41:59;94734.66;;;10.34;77.50
32243;BME280;18731;42.830;24.390;2022-09-21T17:47:22;94738.41;;;10.32;77.41
32243;BME280;18731;42.830;24.390;2022-09-21T17:49:52;94744.53;;;10.33;77.59
32243;BME280;18731;42.830;24.390;2022-09-21T17:52:22;94740.31;;;10.32;77.50
32243;BME280;18731;42.830;24.390;2022-09-21T17:55:10;94744.84;;;10.31;77.61
32243;BME280;18731;42.830;24.390;2022-09-21T18:00:11;94749.72;;;10.29;77.72
32243;BME280;18731;42.830;24.390;2022-09-21T18:02:38;94749.44;;;10.22;77.28
32243;BME280;18731;42.830;24.390;2022-09-21T18:07:44;94706.66;;;9.93;77.67
32243;BME280;18731;42.830;24.390;2022-09-21T18:10:11;94717.63;;;10.00;77.71
32243;BME280;18731;42.830;24.390;2022-09-21T18:12:49;94753.22;;;10.21;77.74
32243;BME280;18731;42.830;24.390;2022-09-21T18:15:41;94754.13;;;10.25;77.74
32243;BME280;18731;42.830;24.390;2022-09-21T18:18:42;94733.44;;;10.05;78.05
32243;BME280;18731;42.830;24.390;2022-09-21T18:21:17;94743.03;;;10.06;78.36
32243;BME280;18731;42.830;24.390;2022-09-21T18:26:15;94749.91;;;10.07;78.45
32243;BME280;18731;42.830;24.390;2022-09-21T18:28:43;94751.03;;;10.06;77.90
32243;BME280;18731;42.830;24.390;2022-09-21T18:36:29;94750.09;;;10.02;78.42
32243;BME280;18731;42.830;24.390;2022-09-21T18:40:00;94744.75;;;10.02;78.49
32243;BME280;18731;42.830;24.390;2022-09-21T18:45:40;94742.88;;;9.94;79.15
32243;BME280;18731;42.830;24.390;2022-09-21T18:48:19;94738.97;;;9.91;79.07
32243;BME280;18731;42.830;24.390;2022-09-21T18:56:06;94690.09;;;9.70;79.13
32243;BME280;18731;42.830;24.390;2022-09-21T18:58:33;94717.34;;;9.84;78.93
32243;BME280;18731;42.830;24.390;2022-09-21T19:00:59;94722.81;;;9.88;78.90
32243;BME280;18731;42.830;24.390;2022-09-21T19:03:25;94736.31;;;9.91;78.57
32243;BME280;18731;42.830;24.390;2022-09-21T19:11:28;94688.06;;;9.58;79.05
32243;BME280;18731;42.830;24.390;2022-09-21T19:17:15;94738.22;;;9.74;79.56
32243;BME280;18731;42.830;24.390;2022-09-21T19:23:33;94723.31;;;9.81;80.28
32243;BME280;18731;42.830;24.390;2022-09-21T19:26:13;94731.16;;;9.86;80.70
32243;BME280;18731;42.830;24.390;2022-09-21T19:31:13;94705.63;;;9.59;80.55
32243;BME280;18731;42.830;24.390;2022-09-21T19:33:39;94726.16;;;9.67;80.66
32243;BME280;18731;42.830;24.390;2022-09-21T19:36:07;94705.94;;;9.66;80.83
32243;BME280;18731;42.830;24.390;2022-09-21T19:38:33;94721.72;;;9.89;80.30
32243;BME280;18731;42.830;24.390;2022-09-21T19:46:23;94729.28;;;9.70;81.64
32243;BME280;18731;42.830;24.390;2022-09-21T19:48:54;94731.19;;;9.60;81.76
32243;BME280;18731;42.830;24.390;2022-09-21T19:54:10;94727.91;;;9.55;82.07
32243;BME280;18731;42.830;24.390;2022-09-21T19:56:56;94724.44;;;9.46;81.91
32243;BME280;18731;42.830;24.390;2022-09-21T19:59:40;94704.56;;;9.34;82.32
32243;BME280;18731;42.830;24.390;2022-09-21T20:02:22;94736.50;;;9.60;83.04
32243;BME280;18731;42.830;24.390;2022-09-21T20:05:22;94739.66;;;9.62;83.06
32243;BME280;18731;42.830;24.390;2022-09-21T20:08:07;94726.78;;;9.56;82.44
32243;BME280;18731;42.830;24.390;2022-09-21T20:16:16;94750.63;;;9.52;82.32
32243;BME280;18731;42.830;24.390;2022-09-21T20:18:47;94757.84;;;9.43;80.35
32243;BME280;18731;42.830;24.390;2022-09-21T20:21:19;94760.34;;;9.48;82.49
32243;BME280;18731;42.830;24.390;2022-09-21T20:23:49;94758.63;;;9.52;83.29
32243;BME280;18731;42.830;24.390;2022-09-21T20:26:23;94767.56;;;9.48;83.57
32243;BME280;18731;42.830;24.390;2022-09-21T20:28:51;94776.97;;;9.54;83.42